createdAt,value
2023-03-05T00:01:35.236Z,4.90
2023-03-05T00:04:04.933Z,5.03
2023-03-05T00:06:33.462Z,4.99
2023-03-05T00:09:02.156Z,5.01
2023-03-05T00:11:31.643Z,4.97
2023-03-05T00:14:01.946Z,4.84
2023-03-05T00:16:30.568Z,4.85
2023-03-05T00:19:00.710Z,4.66
2023-03-05T00:21:31.389Z,4.47
2023-03-05T00:24:01.663Z,4.67
2023-03-05T00:26:30.293Z,4.62
2023-03-05T00:28:58.841Z,4.65
2023-03-05T00:31:32.486Z,4.33
2023-03-05T00:34:06.745Z,4.34
2023-03-05T00:36:35.638Z,4.34
2023-03-05T00:39:03.564Z,4.48
2023-03-05T00:41:32.986Z,4.18
2023-03-05T00:44:01.019Z,4.23
2023-03-05T00:46:29.017Z,4.37
2023-03-05T00:48:57.823Z,4.36
2023-03-05T00:51:26.906Z,4.37
2023-03-05T00:53:54.924Z,4.08
2023-03-05T00:56:22.896Z,4.27
2023-03-05T00:58:51.013Z,4.14
2023-03-05T01:01:18.657Z,4.17
2023-03-05T01:03:46.495Z,4.30
2023-03-05T01:06:17.067Z,4.18
2023-03-05T01:08:45.812Z,4.06
2023-03-05T01:11:14.373Z,4.03
2023-03-05T01:13:42.341Z,3.96
2023-03-05T01:16:10.223Z,3.93
2023-03-05T01:18:38.736Z,3.97
2023-03-05T01:21:07.155Z,4.07
2023-03-05T01:23:37.321Z,4.12
2023-03-05T01:26:05.962Z,3.72
2023-03-05T01:28:34.531Z,3.75
2023-03-05T01:31:02.295Z,3.85
2023-03-05T01:33:30.047Z,3.95
2023-03-05T01:35:58.034Z,3.95
2023-03-05T01:38:25.808Z,3.97
2023-03-05T01:40:53.405Z,3.90
2023-03-05T01:43:29.764Z,4.01
2023-03-05T01:46:37.431Z,3.99
2023-03-05T01:49:19.906Z,4.15
2023-03-05T01:51:50.423Z,4.08
2023-03-05T01:54:20.955Z,4.00
2023-03-05T01:56:51.681Z,3.97
2023-03-05T01:59:23.545Z,3.95
2023-03-05T02:01:54.771Z,3.97
2023-03-05T02:04:29.537Z,4.10
2023-03-05T02:06:57.326Z,4.29
2023-03-05T02:09:28.712Z,4.21
2023-03-05T02:11:57.368Z,4.18
2023-03-05T02:14:25.966Z,4.02
2023-03-05T02:16:53.725Z,4.20
2023-03-05T02:19:21.415Z,4.19
2023-03-05T02:21:50.615Z,4.27
2023-03-05T02:24:33.439Z,4.06
2023-03-05T02:27:02.977Z,4.15
2023-03-05T02:29:32.820Z,4.04
2023-03-05T02:32:01.582Z,3.86
2023-03-05T02:34:29.911Z,4.14
2023-03-05T02:36:58.160Z,4.18
2023-03-05T02:39:26.296Z,3.86
2023-03-05T02:41:54.341Z,3.99
2023-03-05T02:44:22.452Z,4.02
2023-03-05T02:46:50.840Z,4.05
2023-03-05T02:49:19.018Z,4.06
2023-03-05T02:51:46.689Z,4.06
2023-03-05T02:54:14.284Z,4.17
2023-03-05T02:56:43.509Z,4.09
2023-03-05T02:59:11.218Z,4.07
2023-03-05T03:01:39.175Z,3.98
2023-03-05T03:04:07.196Z,4.03
2023-03-05T03:06:34.763Z,3.79
2023-03-05T03:09:02.430Z,3.92
2023-03-05T03:11:30.365Z,3.94
2023-03-05T03:13:59.292Z,3.99
2023-03-05T03:16:26.970Z,3.80
2023-03-05T03:18:55.105Z,3.77
2023-03-05T03:21:25.375Z,3.66
2023-03-05T03:23:53.427Z,3.58
2023-03-05T03:26:21.422Z,3.60
2023-03-05T03:28:49.170Z,3.73
2023-03-05T03:31:17.365Z,3.74
2023-03-05T03:33:45.510Z,3.75
2023-03-05T03:36:13.394Z,3.68
2023-03-05T03:38:41.533Z,3.55
2023-03-05T03:41:09.640Z,3.38
2023-03-05T03:43:37.717Z,3.60
2023-03-05T03:46:07.334Z,3.64
2023-03-05T03:48:36.170Z,3.37
2023-03-05T03:51:05.306Z,3.49
2023-03-05T03:53:32.958Z,3.54
2023-03-05T03:56:01.020Z,3.58
2023-03-05T03:58:28.712Z,3.57
2023-03-05T04:00:56.445Z,3.78
2023-03-05T04:03:24.388Z,3.83
2023-03-05T04:05:52.126Z,4.00
2023-03-05T04:08:19.742Z,4.00
2023-03-05T04:10:48.764Z,4.07
2023-03-05T04:13:16.961Z,4.06
2023-03-05T04:15:44.737Z,4.19
2023-03-05T04:18:12.592Z,4.11
2023-03-05T04:20:40.725Z,4.26
2023-03-05T04:23:08.463Z,4.22
2023-03-05T04:25:36.400Z,4.02
2023-03-05T04:28:04.354Z,4.22
2023-03-05T04:30:32.023Z,4.38
2023-03-05T04:32:59.912Z,4.34
2023-03-05T04:35:27.507Z,4.41
2023-03-05T04:37:55.107Z,4.42
2023-03-05T04:40:23.124Z,4.36
2023-03-05T04:42:50.667Z,4.31
2023-03-05T04:45:18.258Z,4.39
2023-03-05T04:47:46.435Z,4.47
2023-03-05T04:50:14.174Z,4.42
2023-03-05T04:52:44.345Z,4.33
2023-03-05T04:55:15.084Z,4.28
2023-03-05T04:57:42.960Z,4.35
2023-03-05T05:00:14.478Z,4.45
2023-03-05T05:02:44.902Z,4.49
2023-03-05T05:05:15.846Z,4.49
2023-03-05T05:07:43.863Z,4.43
2023-03-05T05:10:12.636Z,4.61
2023-03-05T05:12:40.618Z,4.61
2023-03-05T05:15:09.327Z,4.57
2023-03-05T05:17:37.021Z,4.39
2023-03-05T05:20:10.933Z,4.26
2023-03-05T05:22:39.012Z,4.24
2023-03-05T05:25:07.379Z,4.55
2023-03-05T05:27:35.098Z,4.61
2023-03-05T05:30:04.225Z,4.43
2023-03-05T05:32:32.185Z,4.41
2023-03-05T05:34:59.888Z,4.52
2023-03-05T05:37:27.942Z,4.54
2023-03-05T05:39:55.706Z,4.72
2023-03-05T05:42:25.201Z,4.69
2023-03-05T05:44:53.805Z,4.72
2023-03-05T05:47:21.698Z,4.49
2023-03-05T05:49:49.354Z,4.68
2023-03-05T05:52:17.832Z,4.52
2023-03-05T05:54:45.550Z,4.68
2023-03-05T05:57:13.206Z,4.77
2023-03-05T05:59:41.305Z,4.79
2023-03-05T06:02:09.164Z,4.63
2023-03-05T06:04:37.712Z,4.70
2023-03-05T06:07:05.506Z,4.85
2023-03-05T06:09:35.698Z,4.52
2023-03-05T06:12:04.527Z,4.64
2023-03-05T06:14:32.348Z,4.94
2023-03-05T06:16:59.945Z,5.09
2023-03-05T06:19:27.896Z,5.01
2023-03-05T06:21:55.698Z,4.92
2023-03-05T06:24:23.432Z,5.04
2023-03-05T06:26:51.327Z,5.12
2023-03-05T06:29:18.948Z,5.29
2023-03-05T06:31:46.804Z,5.06
2023-03-05T06:34:14.714Z,5.26
2023-03-05T06:36:43.721Z,5.39
2023-03-05T06:39:11.911Z,5.33
2023-03-05T06:41:40.690Z,5.41
2023-03-05T06:44:08.320Z,5.32
2023-03-05T06:46:39.949Z,5.34
2023-03-05T06:49:09.539Z,5.47
2023-03-05T06:51:39.966Z,5.38
2023-03-05T06:54:12.722Z,5.24
2023-03-05T06:56:42.982Z,5.59
2023-03-05T06:59:12.041Z,5.51
2023-03-05T07:01:39.911Z,5.64
2023-03-05T07:04:07.888Z,5.63
2023-03-05T07:06:39.323Z,5.73
2023-03-05T07:09:09.205Z,5.69
2023-03-05T07:11:37.717Z,5.51
2023-03-05T07:14:05.320Z,5.76
2023-03-05T07:16:34.696Z,5.76
2023-03-05T07:19:05.272Z,5.74
2023-03-05T07:21:34.455Z,5.67
2023-03-05T07:24:03.945Z,5.64
2023-03-05T07:26:33.616Z,5.62
2023-03-05T07:29:01.562Z,5.65
2023-03-05T07:31:33.174Z,5.62
2023-03-05T07:34:02.579Z,5.72
2023-03-05T07:36:31.365Z,5.85
2023-03-05T07:38:59.019Z,5.71
2023-03-05T07:41:26.709Z,5.73
2023-03-05T07:43:55.355Z,5.56
2023-03-05T07:46:26.817Z,5.54
2023-03-05T07:48:55.709Z,5.42
2023-03-05T07:51:24.434Z,5.51
2023-03-05T07:53:53.718Z,5.28
2023-03-05T07:56:29.017Z,5.50
2023-03-05T07:58:56.645Z,5.45
2023-03-05T08:01:24.760Z,5.42
2023-03-05T08:03:52.982Z,5.48
2023-03-05T08:06:20.622Z,5.45
2023-03-05T08:08:48.789Z,5.40
2023-03-05T08:11:17.216Z,5.46
2023-03-05T08:13:45.315Z,5.66
2023-03-05T08:16:16.330Z,5.51
2023-03-05T08:18:44.832Z,5.52
2023-03-05T08:21:21.390Z,5.47
2023-03-05T08:23:49.661Z,5.47
2023-03-05T08:26:20.524Z,5.43
2023-03-05T08:28:48.916Z,5.24
2023-03-05T08:31:19.397Z,5.53
2023-03-05T08:33:48.575Z,5.53
2023-03-05T08:36:16.631Z,5.75
2023-03-05T08:38:46.803Z,5.23
2023-03-05T08:41:16.093Z,5.59
2023-03-05T08:43:44.035Z,5.82
2023-03-05T08:46:16.088Z,5.97
2023-03-05T08:48:44.265Z,6.03
2023-03-05T08:51:17.667Z,6.33
2023-03-05T08:53:47.106Z,6.23
2023-03-05T08:56:15.190Z,6.28
2023-03-05T08:58:43.023Z,6.17
2023-03-05T09:01:12.503Z,6.22
2023-03-05T09:03:40.904Z,6.25
2023-03-05T09:06:10.408Z,6.31
2023-03-05T09:08:39.245Z,6.27
2023-03-05T09:11:08.985Z,6.35
2023-03-05T09:13:36.732Z,6.34
2023-03-05T09:16:08.360Z,6.53
2023-03-05T09:18:40.241Z,6.50
2023-03-05T09:21:12.893Z,6.61
2023-03-05T09:23:40.946Z,6.63
2023-03-05T09:26:14.907Z,6.67
2023-03-05T09:28:46.134Z,6.56
2023-03-05T09:31:14.325Z,6.67
2023-03-05T09:33:42.155Z,6.75
2023-03-05T09:36:35.802Z,6.86
2023-03-05T09:39:04.646Z,6.61
2023-03-05T09:41:57.619Z,6.84
2023-03-05T09:44:36.120Z,6.95
2023-03-05T09:47:22.172Z,6.83
2023-03-05T09:50:19.122Z,6.78
2023-03-05T09:52:57.237Z,6.92
2023-03-05T09:55:31.923Z,7.08
2023-03-05T09:58:06.190Z,7.03
2023-03-05T10:00:45.333Z,6.89
2023-03-05T10:03:16.765Z,6.77
2023-03-05T10:05:59.624Z,6.82
2023-03-05T10:08:41.108Z,7.14
2023-03-05T10:11:18.058Z,6.37
2023-03-05T10:13:46.500Z,6.63
2023-03-05T10:16:45.282Z,6.60
2023-03-05T10:19:46.605Z,6.78
2023-03-05T10:22:22.627Z,6.83
2023-03-05T10:24:52.954Z,6.69
2023-03-05T10:27:33.006Z,6.64
2023-03-05T10:30:13.971Z,6.46
2023-03-05T10:32:53.543Z,6.84
2023-03-05T10:35:43.065Z,6.96
2023-03-05T10:38:29.541Z,7.12
2023-03-05T10:41:04.401Z,6.96
2023-03-05T10:43:37.841Z,6.88
2023-03-05T10:46:19.016Z,7.11
2023-03-05T10:49:10.806Z,6.86
2023-03-05T10:51:46.169Z,6.93
2023-03-05T10:54:32.930Z,6.82
2023-03-05T10:57:25.527Z,6.90
2023-03-05T11:00:25.410Z,7.07
2023-03-05T11:03:08.649Z,6.97
2023-03-05T11:08:54.482Z,6.74
2023-03-05T11:11:23.834Z,7.97
2023-03-05T11:14:03.563Z,8.38
2023-03-05T11:16:34.712Z,8.63
2023-03-05T11:19:29.793Z,8.81
2023-03-05T11:22:17.465Z,8.98
2023-03-05T11:25:02.651Z,9.11
2023-03-05T11:27:35.813Z,9.23
2023-03-05T11:30:05.017Z,9.33
2023-03-05T11:32:33.281Z,9.39
2023-03-05T11:35:00.993Z,9.42
2023-03-05T11:37:31.839Z,9.50
2023-03-05T11:40:22.632Z,9.54
2023-03-05T11:42:57.021Z,9.61
2023-03-05T11:45:26.363Z,9.69
2023-03-05T11:47:59.129Z,9.71
2023-03-05T11:50:32.863Z,9.78
2023-03-05T11:53:28.348Z,9.75
2023-03-05T11:56:03.705Z,9.73
2023-03-05T11:58:44.270Z,9.73
2023-03-05T12:01:17.181Z,9.80
2023-03-05T12:03:46.128Z,9.78
2023-03-05T12:06:28.606Z,9.80
2023-03-05T12:09:03.893Z,9.80
2023-03-05T12:11:33.747Z,9.84
2023-03-05T12:14:19.460Z,9.93
2023-03-05T12:16:50.656Z,9.94
2023-03-05T12:19:50.635Z,9.91
2023-03-05T12:22:25.300Z,9.94
2023-03-05T12:24:53.656Z,9.98
2023-03-05T12:27:35.716Z,10.03
2023-03-05T12:30:05.286Z,10.00
2023-03-05T12:32:32.956Z,10.11
2023-03-05T12:35:23.936Z,10.20
2023-03-05T12:37:51.909Z,10.19
2023-03-05T12:40:26.730Z,10.27
2023-03-05T12:42:58.279Z,10.23
2023-03-05T12:45:27.317Z,10.20
2023-03-05T12:47:55.987Z,10.25
2023-03-05T12:50:27.407Z,10.13
2023-03-05T12:52:58.217Z,10.12
2023-03-05T12:55:34.101Z,10.07
2023-03-05T12:58:15.966Z,10.00
2023-03-05T13:00:57.090Z,9.97
2023-03-05T13:03:33.825Z,9.89
2023-03-05T13:06:05.593Z,9.88
2023-03-05T13:08:37.768Z,9.79
2023-03-05T13:11:16.918Z,9.79
2023-03-05T13:13:47.347Z,9.84
2023-03-05T13:16:31.526Z,9.80
2023-03-05T13:19:01.946Z,9.80
2023-03-05T13:21:32.258Z,9.78
2023-03-05T13:24:03.329Z,9.72
2023-03-05T13:26:38.606Z,9.75
2023-03-05T13:29:24.079Z,9.75
2023-03-05T13:32:00.381Z,9.72
2023-03-05T13:34:46.843Z,9.72
2023-03-05T13:37:19.043Z,9.67
2023-03-05T13:40:22.393Z,9.65
2023-03-05T13:42:51.091Z,9.61
2023-03-05T13:45:27.080Z,9.67
2023-03-05T13:48:04.052Z,9.64
2023-03-05T13:50:35.254Z,9.71
2023-03-05T13:53:23.764Z,9.71
2023-03-05T13:55:57.825Z,9.69
2023-03-05T13:58:49.604Z,9.67
2023-03-05T14:01:18.203Z,9.70
2023-03-05T14:03:51.397Z,9.66
2023-03-05T14:06:22.296Z,9.68
2023-03-05T14:08:59.551Z,9.68
2023-03-05T14:11:27.660Z,9.69
2023-03-05T14:14:05.847Z,9.64
2023-03-05T14:16:34.184Z,9.63
2023-03-05T14:19:09.764Z,9.57
2023-03-05T14:21:46.876Z,9.57
2023-03-05T14:24:23.557Z,9.59
2023-03-05T14:26:54.190Z,9.58
2023-03-05T14:29:25.296Z,9.49
2023-03-05T14:32:02.983Z,9.50
2023-03-05T14:34:38.055Z,9.52
2023-03-05T14:37:21.339Z,9.54
2023-03-05T14:39:56.511Z,9.50
2023-03-05T14:42:31.929Z,9.48
2023-03-05T14:45:14.215Z,9.45
2023-03-05T14:47:42.690Z,9.39
2023-03-05T14:50:16.455Z,9.34
2023-03-05T14:52:46.297Z,9.35
2023-03-05T14:55:19.884Z,9.28
2023-03-05T14:57:48.576Z,9.36
2023-03-05T15:00:23.762Z,9.34
2023-03-05T15:02:52.500Z,9.31
2023-03-05T15:05:21.202Z,9.24
2023-03-05T15:07:50.420Z,9.20
2023-03-05T15:10:21.516Z,9.20
2023-03-05T15:12:53.572Z,9.15
2023-03-05T15:15:22.620Z,9.20
2023-03-05T15:17:52.291Z,9.15
2023-03-05T15:20:24.389Z,9.12
2023-03-05T15:22:53.662Z,9.13
2023-03-05T15:25:23.682Z,9.11
2023-03-05T15:27:51.392Z,9.11
2023-03-05T15:30:38.709Z,9.06
2023-03-05T15:33:10.026Z,9.06
2023-03-05T15:35:38.318Z,8.97
2023-03-05T15:38:05.952Z,9.06
2023-03-05T15:40:34.570Z,8.96
2023-03-05T15:43:03.426Z,8.94
2023-03-05T15:45:31.561Z,8.96
2023-03-05T15:48:00.398Z,8.89
2023-03-05T15:50:28.944Z,8.92
2023-03-05T15:52:57.493Z,8.81
2023-03-05T15:55:26.571Z,8.83
2023-03-05T15:57:55.375Z,8.83
2023-03-05T16:00:28.893Z,8.84
2023-03-05T16:02:57.342Z,8.77
2023-03-05T16:05:25.678Z,8.77
2023-03-05T16:07:54.749Z,8.68
2023-03-05T16:10:25.675Z,8.71
2023-03-05T16:13:08.305Z,8.68
2023-03-05T16:15:40.261Z,8.60
2023-03-05T16:18:12.363Z,8.65
2023-03-05T16:20:40.545Z,8.61
2023-03-05T16:23:08.486Z,8.59
2023-03-05T16:25:37.840Z,8.69
2023-03-05T16:28:06.610Z,8.64
2023-03-05T16:30:34.495Z,8.57
2023-03-05T16:33:02.466Z,8.59
2023-03-05T16:35:30.986Z,8.55
2023-03-05T16:37:59.093Z,8.55
2023-03-05T16:40:44.426Z,8.56
2023-03-05T16:43:15.983Z,8.56
2023-03-05T16:45:43.976Z,8.44
2023-03-05T16:48:12.466Z,8.54
2023-03-05T16:50:40.652Z,8.47
2023-03-05T16:53:09.224Z,8.46
2023-03-05T16:55:37.827Z,8.43
2023-03-05T16:58:06.509Z,8.39
2023-03-05T17:00:35.035Z,8.42
2023-03-05T17:03:03.107Z,8.38
2023-03-05T17:05:31.492Z,8.38
2023-03-05T17:08:02.173Z,8.36
2023-03-05T17:10:31.376Z,8.30
2023-03-05T17:13:00.943Z,8.31
2023-03-05T17:15:28.918Z,8.33
2023-03-05T17:17:57.001Z,8.39
2023-03-05T17:20:25.105Z,8.42
2023-03-05T17:22:53.175Z,8.43
2023-03-05T17:25:21.646Z,8.43
2023-03-05T17:27:49.753Z,8.44
2023-03-05T17:30:17.774Z,8.44
2023-03-05T17:32:46.060Z,8.43
2023-03-05T17:35:19.405Z,8.43
2023-03-05T17:37:48.055Z,8.43
2023-03-05T17:40:16.699Z,8.43
2023-03-05T17:42:45.008Z,8.44
2023-03-05T17:45:13.416Z,8.43
2023-03-05T17:47:41.620Z,8.44
2023-03-05T17:50:12.450Z,8.44
2023-03-05T17:52:41.519Z,8.43
2023-03-05T17:55:11.782Z,8.44
2023-03-05T17:57:41.820Z,8.43
2023-03-05T18:00:16.169Z,8.44
2023-03-05T18:02:44.724Z,8.44
2023-03-05T18:05:13.597Z,8.42
2023-03-05T18:07:41.743Z,8.43
2023-03-05T18:10:12.219Z,8.43
2023-03-05T18:12:41.043Z,8.42
2023-03-05T18:15:11.773Z,8.43
2023-03-05T18:17:39.785Z,8.41
2023-03-05T18:20:19.652Z,8.41
2023-03-05T18:22:48.346Z,8.40
2023-03-05T18:25:16.389Z,8.39
2023-03-05T18:27:44.450Z,8.37
2023-03-05T18:30:13.224Z,8.35
2023-03-05T18:32:41.214Z,8.35
2023-03-05T18:35:10.576Z,8.36
2023-03-05T18:37:39.915Z,8.35
2023-03-05T18:40:09.787Z,8.33
2023-03-05T18:42:38.842Z,8.33
2023-03-05T18:45:10.497Z,8.35
2023-03-05T18:47:42.027Z,8.35
2023-03-05T18:50:15.508Z,8.33
2023-03-05T18:52:44.104Z,8.33
2023-03-05T18:55:18.338Z,8.31
2023-03-05T18:57:46.670Z,8.30
2023-03-05T19:00:16.887Z,8.31
2023-03-05T19:02:44.964Z,8.29
2023-03-05T19:05:14.762Z,8.30
2023-03-05T19:07:45.363Z,8.28
2023-03-05T19:10:15.313Z,8.27
2023-03-05T19:13:27.996Z,8.26
2023-03-05T19:16:22.131Z,8.26
2023-03-05T19:19:23.751Z,8.26
2023-03-05T19:21:56.462Z,8.25
2023-03-05T19:24:25.434Z,8.23
2023-03-05T19:26:56.056Z,8.24
2023-03-05T19:29:26.518Z,8.23
2023-03-05T19:31:55.274Z,8.22
2023-03-05T19:34:23.340Z,8.20
2023-03-05T19:36:52.245Z,8.22
2023-03-05T19:39:22.104Z,8.17
2023-03-05T19:41:50.218Z,8.18
2023-03-05T19:44:19.409Z,8.17
2023-03-05T19:46:48.613Z,8.16
2023-03-05T19:49:18.298Z,8.17
2023-03-05T19:51:46.893Z,8.20
2023-03-05T19:54:17.302Z,8.19
2023-03-05T19:56:46.573Z,8.17
2023-03-05T19:59:17.940Z,8.18
2023-03-05T20:01:47.263Z,8.18
2023-03-05T20:04:18.615Z,8.17
2023-03-05T20:06:48.041Z,8.18
2023-03-05T20:09:16.667Z,8.17
2023-03-05T20:11:44.773Z,8.14
2023-03-05T20:14:15.824Z,8.15
2023-03-05T20:16:44.264Z,8.12
2023-03-05T20:19:17.367Z,8.13
2023-03-05T20:21:46.472Z,8.11
2023-03-05T20:24:19.793Z,8.08
2023-03-05T20:26:48.964Z,8.08
2023-03-05T20:29:18.615Z,8.11
2023-03-05T20:31:47.851Z,8.07
2023-03-05T20:34:18.113Z,8.07
2023-03-05T20:36:46.658Z,8.06
2023-03-05T20:39:15.477Z,8.08
2023-03-05T20:41:44.936Z,8.07
2023-03-05T20:44:14.748Z,8.05
2023-03-05T20:47:52.659Z,8.02
2023-03-05T20:50:20.952Z,8.01
2023-03-05T20:52:49.091Z,7.89
2023-03-05T20:55:17.127Z,7.81
2023-03-05T20:57:46.330Z,7.75
2023-03-05T21:00:14.810Z,7.66
2023-03-05T21:02:42.763Z,7.60
2023-03-05T21:05:12.611Z,7.59
2023-03-05T21:07:40.717Z,7.53
2023-03-05T21:10:09.540Z,7.52
2023-03-05T21:12:38.436Z,7.46
2023-03-05T21:15:07.257Z,7.44
2023-03-05T21:17:35.361Z,7.42
2023-03-05T21:20:05.964Z,7.33
2023-03-05T21:22:33.749Z,7.34
2023-03-05T21:25:24.989Z,7.32
2023-03-05T21:28:13.152Z,7.26
2023-03-05T21:30:44.193Z,7.22
2023-03-05T21:33:17.540Z,7.15
2023-03-05T21:35:45.769Z,7.12
2023-03-05T21:38:14.363Z,7.07
2023-03-05T21:40:45.628Z,7.05
2023-03-05T21:43:14.254Z,7.01
2023-03-05T21:45:42.635Z,6.94
2023-03-05T21:48:10.725Z,6.94
2023-03-05T21:50:40.501Z,6.94
2023-03-05T21:53:08.791Z,6.90
2023-03-05T21:56:07.889Z,6.88
2023-03-05T21:58:50.079Z,6.86
2023-03-05T22:01:21.142Z,6.80
2023-03-05T22:03:50.361Z,6.74
2023-03-05T22:06:19.925Z,6.73
2023-03-05T22:08:47.786Z,6.72
2023-03-05T22:11:18.722Z,6.70
2023-03-05T22:13:46.537Z,6.66
2023-03-05T22:16:24.716Z,6.67
2023-03-05T22:18:53.768Z,6.64
2023-03-05T22:21:25.257Z,6.58
2023-03-05T22:23:57.119Z,6.53
2023-03-05T22:26:25.494Z,6.53
2023-03-05T22:28:53.457Z,6.51
2023-03-05T22:31:24.250Z,6.49
2023-03-05T22:33:52.482Z,6.41
2023-03-05T22:36:20.978Z,6.38
2023-03-05T22:38:48.656Z,6.40
2023-03-05T22:41:19.766Z,6.36
2023-03-05T22:43:50.530Z,6.32
2023-03-05T22:46:21.688Z,6.32
2023-03-05T22:48:50.263Z,6.31
2023-03-05T22:51:19.513Z,6.27
2023-03-05T22:53:47.221Z,6.29
2023-03-05T22:56:17.597Z,6.30
2023-03-05T22:58:45.701Z,6.22
2023-03-05T23:01:19.819Z,6.22
2023-03-05T23:04:51.267Z,6.20
2023-03-05T23:07:39.937Z,6.18
2023-03-05T23:10:27.331Z,6.14
2023-03-05T23:12:57.366Z,6.14
2023-03-05T23:15:26.700Z,6.09
2023-03-05T23:17:54.594Z,6.09
2023-03-05T23:20:24.868Z,6.10
2023-03-05T23:22:55.870Z,6.07
2023-03-05T23:25:26.615Z,6.06
2023-03-05T23:27:55.903Z,6.04
2023-03-05T23:30:25.068Z,6.04
2023-03-05T23:32:56.351Z,6.06
2023-03-05T23:35:28.380Z,6.03
2023-03-05T23:37:57.647Z,6.01
2023-03-05T23:40:28.356Z,5.97
2023-03-05T23:42:56.746Z,5.97
2023-03-05T23:45:25.160Z,5.96
2023-03-05T23:47:53.659Z,5.94
2023-03-05T23:50:30.930Z,5.93
2023-03-05T23:53:01.867Z,5.92
2023-03-05T23:55:33.742Z,5.92
2023-03-05T23:58:02.879Z,5.92
